Time;durP1;ratioP1;P1;durP2;ratioP2;P2;SDS_P1;SDS_P2;PMS_P1;PMS_P2;Temp;Humidity;BMP_temperature;BMP_pressure;BME280_temperature;BME280_humidity;BME280_pressure;Samples;Min_cycle;Max_cycle;Signal;HPM_P1;HPM_P2
2022/03/19 01:52:08;;;;;;;58.13;22.97;;;;;;;;;;6298278;22;20209;-88
2022/03/19 01:55:14;;;;;;;55.73;21.70;;;;;;;;;;6301915;22;20225;-89
2022/03/19 01:58:19;;;;;;;49.30;21.93;;;;;;;;;;6301027;22;20165;-89
2022/03/19 02:01:24;;;;;;;50.57;22.20;;;;;;;;;;6301334;22;20168;-88
2022/03/19 02:04:30;;;;;;;53.43;21.70;;;;;;;;;;6301701;22;20484;-87
2022/03/19 02:07:36;;;;;;;51.57;22.37;;;;;;;;;;6299976;22;20264;-88
2022/03/19 02:10:41;;;;;;;54.97;21.37;;;;;;;;;;6301547;22;20161;-88
2022/03/19 02:13:47;;;;;;;52.97;22.67;;;;;;;;;;6301634;22;20161;-88
2022/03/19 02:17:05;;;;;;;53.67;22.33;;;;;;;;;;6299090;22;20246;-88
2022/03/19 02:20:10;;;;;;;59.53;23.97;;;;;;;;;;6301454;22;20185;-88
2022/03/19 02:26:46;;;;;;;45.93;20.87;;;;;;;;;;6300141;22;20176;-89
2022/03/19 02:29:51;;;;;;;52.50;22.03;;;;;;;;;;6302441;22;20174;-88
2022/03/19 02:32:57;;;;;;;54.07;22.07;;;;;;;;;;6302182;22;20169;-88
2022/03/19 02:36:02;;;;;;;52.83;22.00;;;;;;;;;;6301643;22;20196;-89
2022/03/19 02:39:13;;;;;;;57.27;23.17;;;;;;;;;;6300218;22;20165;-88
2022/03/19 02:42:20;;;;;;;62.70;23.47;;;;;;;;;;6302462;22;20161;-88
2022/03/19 02:45:25;;;;;;;63.90;25.17;;;;;;;;;;6302160;22;20164;-87
2022/03/19 02:48:30;;;;;;;70.83;25.10;;;;;;;;;;6302416;22;20169;-88
2022/03/19 02:51:36;;;;;;;61.87;24.77;;;;;;;;;;6301355;22;20184;-88
2022/03/19 02:54:43;;;;;;;60.50;23.30;;;;;;;;;;6298642;22;20173;-87
2022/03/19 02:57:48;;;;;;;59.07;23.03;;;;;;;;;;6300638;22;20177;-87
2022/03/19 03:00:53;;;;;;;56.17;22.60;;;;;;;;;;6301559;22;20165;-88
2022/03/19 03:03:58;;;;;;;57.43;24.00;;;;;;;;;;6301651;22;20215;-86
2022/03/19 03:07:04;;;;;;;60.33;23.50;;;;;;;;;;6302227;22;20169;-88
2022/03/19 03:10:14;;;;;;;61.70;26.00;;;;;;;;;;6302221;22;20157;-87
2022/03/19 03:13:19;;;;;;;65.83;26.00;;;;;;;;;;6300994;22;20192;-87
2022/03/19 03:16:24;;;;;;;73.07;29.47;;;;;;;;;;6319131;22;20211;-88
2022/03/19 03:19:32;;;;;;;83.47;30.63;;;;;;;;;;6300481;22;20160;-88
2022/03/19 03:22:42;;;;;;;76.67;28.93;;;;;;;;;;6300758;22;20166;-87
2022/03/19 03:25:50;;;;;;;60.60;24.17;;;;;;;;;;6318910;22;20173;-88
2022/03/19 03:28:56;;;;;;;65.50;25.70;;;;;;;;;;6316154;22;20879;-87
2022/03/19 03:32:01;;;;;;;66.57;25.23;;;;;;;;;;6301041;22;20157;-87
2022/03/19 03:35:07;;;;;;;61.20;24.60;;;;;;;;;;6300161;22;20192;-87
2022/03/19 03:38:13;;;;;;;65.47;24.73;;;;;;;;;;6319171;22;20173;-87
2022/03/19 03:41:19;;;;;;;66.73;25.50;;;;;;;;;;6299963;22;20164;-87
2022/03/19 03:44:24;;;;;;;62.13;24.77;;;;;;;;;;6299398;22;20173;-87
2022/03/19 03:47:29;;;;;;;66.47;24.93;;;;;;;;;;6299716;22;20245;-87
2022/03/19 03:50:35;;;;;;;63.50;24.90;;;;;;;;;;6300208;22;20212;-87
2022/03/19 03:53:40;;;;;;;69.27;26.57;;;;;;;;;;6300265;22;20165;-88
2022/03/19 03:56:46;;;;;;;66.43;26.00;;;;;;;;;;6299492;22;20198;-87
2022/03/19 03:59:52;;;;;;;66.40;25.93;;;;;;;;;;6300299;22;20165;-87
2022/03/19 04:02:58;;;;;;;69.47;26.33;;;;;;;;;;6298560;22;20161;-88
2022/03/19 04:06:03;;;;;;;69.83;26.63;;;;;;;;;;6298221;22;20217;-86
2022/03/19 04:09:08;;;;;;;70.57;26.07;;;;;;;;;;6299954;22;20212;-88
2022/03/19 04:12:15;;;;;;;67.37;26.63;;;;;;;;;;6316152;22;20161;-88
2022/03/19 04:15:19;;;;;;;75.57;27.10;;;;;;;;;;6300499;22;20504;-87
2022/03/19 04:18:29;;;;;;;73.23;27.93;;;;;;;;;;6301057;22;20168;-88
2022/03/19 04:21:34;;;;;;;73.73;27.37;;;;;;;;;;6299496;22;20165;-88
2022/03/19 04:24:39;;;;;;;75.10;27.37;;;;;;;;;;6299192;22;20187;-87
2022/03/19 04:27:46;;;;;;;66.80;26.60;;;;;;;;;;6299146;22;20169;-87
2022/03/19 04:30:51;;;;;;;68.60;26.93;;;;;;;;;;6300926;22;20234;-89
2022/03/19 04:33:56;;;;;;;69.07;26.13;;;;;;;;;;6301463;22;20270;-87
2022/03/19 04:37:01;;;;;;;68.37;26.70;;;;;;;;;;6298339;22;20239;-86
2022/03/19 04:40:07;;;;;;;70.03;26.70;;;;;;;;;;6300200;22;20160;-87
2022/03/19 04:43:17;;;;;;;71.07;26.97;;;;;;;;;;6301362;22;20292;-87
2022/03/19 04:46:22;;;;;;;70.33;25.43;;;;;;;;;;6300321;22;20180;-88
2022/03/19 04:49:28;;;;;;;74.97;29.43;;;;;;;;;;6302356;22;20239;-88
2022/03/19 04:52:33;;;;;;;70.27;25.73;;;;;;;;;;6300759;22;20203;-87
2022/03/19 04:55:39;;;;;;;69.37;27.30;;;;;;;;;;6300791;22;20193;-86
2022/03/19 04:58:46;;;;;;;77.13;28.63;;;;;;;;;;6300623;22;20597;-87
2022/03/19 05:01:57;;;;;;;77.03;29.07;;;;;;;;;;6299487;22;20228;-88
2022/03/19 05:05:02;;;;;;;66.07;25.97;;;;;;;;;;6302332;22;20165;-87
2022/03/19 05:08:07;;;;;;;67.20;25.17;;;;;;;;;;6302314;22;20184;-86
2022/03/19 05:11:14;;;;;;;58.70;23.70;;;;;;;;;;6299890;22;20165;-88
2022/03/19 05:14:20;;;;;;;68.37;26.07;;;;;;;;;;6320597;22;20167;-87
2022/03/19 05:17:25;;;;;;;69.33;26.13;;;;;;;;;;6301597;22;20192;-88
2022/03/19 05:20:31;;;;;;;64.50;23.97;;;;;;;;;;6302115;22;20162;-87
2022/03/19 05:23:36;;;;;;;67.73;25.87;;;;;;;;;;6322116;22;20253;-89
2022/03/19 05:26:41;;;;;;;66.87;26.80;;;;;;;;;;6301297;22;20676;-87
2022/03/19 05:29:47;;;;;;;68.37;25.83;;;;;;;;;;6302350;22;20173;-87
2022/03/19 05:32:52;;;;;;;66.47;26.93;;;;;;;;;;6318166;22;20169;-87
2022/03/19 05:35:57;;;;;;;76.07;28.27;;;;;;;;;;6301686;22;20191;-87
2022/03/19 05:39:02;;;;;;;74.07;28.33;;;;;;;;;;6302615;22;20164;-87
2022/03/19 05:42:08;;;;;;;65.70;26.90;;;;;;;;;;6301284;22;20173;-86
2022/03/19 05:45:15;;;;;;;70.90;26.87;;;;;;;;;;6299627;22;20481;-87
2022/03/19 05:48:20;;;;;;;71.13;26.10;;;;;;;;;;6300540;22;20217;-88
2022/03/19 05:51:25;;;;;;;76.50;25.90;;;;;;;;;;6301608;22;20235;-87
2022/03/19 05:54:30;;;;;;;63.47;24.37;;;;;;;;;;6300417;22;20211;-88
2022/03/19 05:57:36;;;;;;;63.57;24.70;;;;;;;;;;6301896;22;20231;-87
2022/03/19 06:00:43;;;;;;;65.13;24.73;;;;;;;;;;6303247;22;20228;-87
2022/03/19 06:03:48;;;;;;;70.67;25.20;;;;;;;;;;6301353;22;20165;-87
2022/03/19 06:06:54;;;;;;;67.77;25.63;;;;;;;;;;6301372;22;20169;-87
2022/03/19 06:10:00;;;;;;;68.70;26.00;;;;;;;;;;6301985;22;20166;-87
2022/03/19 06:13:05;;;;;;;68.90;27.30;;;;;;;;;;6300712;22;20165;-87
2022/03/19 06:16:15;;;;;;;66.03;27.57;;;;;;;;;;6299909;22;20267;-87
2022/03/19 06:19:20;;;;;;;68.77;27.00;;;;;;;;;;6299658;22;20173;-85
2022/03/19 06:22:25;;;;;;;66.00;26.67;;;;;;;;;;6301052;22;20153;-86
2022/03/19 06:25:30;;;;;;;66.30;26.30;;;;;;;;;;6317231;22;20165;-87
2022/03/19 06:28:35;;;;;;;68.27;25.40;;;;;;;;;;6318727;22;20166;-86
2022/03/19 06:31:41;;;;;;;71.03;27.93;;;;;;;;;;6301519;22;20170;-88
2022/03/19 06:34:46;;;;;;;76.23;28.60;;;;;;;;;;6302168;22;20169;-89
2022/03/19 06:37:50;;;;;;;65.90;26.67;;;;;;;;;;6299785;22;20247;-84
2022/03/19 06:40:57;;;;;;;74.63;28.43;;;;;;;;;;6301857;22;20180;-87
2022/03/19 06:44:03;;;;;;;73.37;28.10;;;;;;;;;;6300107;22;20196;-87
2022/03/19 06:47:10;;;;;;;62.13;25.30;;;;;;;;;;6300726;22;20460;-88
2022/03/19 06:50:16;;;;;;;64.03;25.27;;;;;;;;;;6320580;22;20162;-87
2022/03/19 06:53:23;;;;;;;67.00;25.77;;;;;;;;;;6300441;22;20162;-88
2022/03/19 06:56:28;;;;;;;76.67;29.00;;;;;;;;;;6300503;22;20223;-88
2022/03/19 06:59:33;;;;;;;71.00;28.13;;;;;;;;;;6301906;22;20614;-87
2022/03/19 07:02:49;;;;;;;67.97;26.53;;;;;;;;;;6301719;22;20253;-87
2022/03/19 07:05:54;;;;;;;66.27;26.57;;;;;;;;;;6318821;22;20169;-86
2022/03/19 07:08:58;;;;;;;67.90;27.37;;;;;;;;;;6300439;22;20161;-89
2022/03/19 07:12:05;;;;;;;68.33;26.53;;;;;;;;;;6301897;22;20177;-86
2022/03/19 07:15:12;;;;;;;65.33;26.20;;;;;;;;;;6300136;22;20255;-88
2022/03/19 07:18:22;;;;;;;62.43;25.37;;;;;;;;;;6300170;22;20237;-88
2022/03/19 07:21:27;;;;;;;63.20;25.83;;;;;;;;;;6319924;22;20164;-87
2022/03/19 07:24:33;;;;;;;62.60;27.13;;;;;;;;;;6320479;22;20691;-87
2022/03/19 07:27:38;;;;;;;65.37;26.00;;;;;;;;;;6321154;22;20216;-88
2022/03/19 07:30:43;;;;;;;67.10;24.97;;;;;;;;;;6303866;22;20161;-87
2022/03/19 07:33:51;;;;;;;56.10;24.67;;;;;;;;;;6299136;22;20181;-87
2022/03/19 07:36:56;;;;;;;63.60;25.73;;;;;;;;;;6318386;22;20239;-87
2022/03/19 07:40:01;;;;;;;69.80;25.07;;;;;;;;;;6299588;22;20215;-88
2022/03/19 07:43:06;;;;;;;58.13;24.77;;;;;;;;;;6299954;22;20165;-87
2022/03/19 07:46:11;;;;;;;60.77;25.03;;;;;;;;;;6301174;22;20550;-88
2022/03/19 07:49:18;;;;;;;57.57;24.47;;;;;;;;;;6300421;22;20679;-89
2022/03/19 07:52:24;;;;;;;53.97;22.10;;;;;;;;;;6298788;22;20193;-84
2022/03/19 07:55:30;;;;;;;57.67;24.30;;;;;;;;;;6300970;22;20191;-88
2022/03/19 07:58:35;;;;;;;54.50;22.83;;;;;;;;;;6298461;22;20165;-86
2022/03/19 08:01:40;;;;;;;54.00;22.93;;;;;;;;;;6297864;22;20229;-86
2022/03/19 08:04:47;;;;;;;53.27;19.97;;;;;;;;;;6317949;22;20166;-89
2022/03/19 08:07:52;;;;;;;41.10;17.37;;;;;;;;;;6299166;22;20172;-87
2022/03/19 08:10:58;;;;;;;34.37;15.03;;;;;;;;;;6299412;22;20680;-88
2022/03/19 08:14:03;;;;;;;30.23;13.50;;;;;;;;;;6300100;22;20631;-87
2022/03/19 08:17:08;;;;;;;29.53;13.77;;;;;;;;;;6297569;22;20181;-87
2022/03/19 08:20:15;;;;;;;26.57;11.37;;;;;;;;;;6298742;22;20722;-87
2022/03/19 08:23:20;;;;;;;26.23;10.00;;;;;;;;;;6298467;22;20169;-88
2022/03/19 08:26:26;;;;;;;20.23;9.13;;;;;;;;;;6318647;22;20161;-88
2022/03/19 08:29:31;;;;;;;17.00;8.33;;;;;;;;;;6317426;22;20165;-87
2022/03/19 08:32:37;;;;;;;14.87;7.57;;;;;;;;;;6299361;22;20173;-88
2022/03/19 08:35:43;;;;;;;17.07;8.00;;;;;;;;;;6317790;22;20169;-88
2022/03/19 08:42:12;;;;;;;18.60;6.97;;;;;;;;;;6317840;22;20172;-89
2022/03/19 08:45:17;;;;;;;15.80;7.22;;;;;;;;;;6316236;22;20723;-89
2022/03/19 08:48:22;;;;;;;19.60;8.18;;;;;;;;;;6299250;22;20160;-88
2022/03/19 08:51:42;;;;;;;25.40;9.40;;;;;;;;;;6318189;22;20780;-88
2022/03/19 08:54:48;;;;;;;15.68;6.95;;;;;;;;;;6315974;22;20173;-89
2022/03/19 08:57:54;;;;;;;15.40;7.65;;;;;;;;;;6316917;22;20193;-90
2022/03/19 09:00:58;;;;;;;17.85;7.18;;;;;;;;;;6315424;22;20172;-89
2022/03/19 09:04:03;;;;;;;14.23;6.72;;;;;;;;;;6317035;22;20170;-90
2022/03/19 09:07:09;;;;;;;18.08;7.20;;;;;;;;;;6316183;22;20166;-87
2022/03/19 09:10:16;;;;;;;14.95;6.68;;;;;;;;;;6317905;22;20220;-87
2022/03/19 09:13:21;;;;;;;18.52;6.47;;;;;;;;;;6316004;22;20240;-89
2022/03/19 09:16:26;;;;;;;15.38;7.38;;;;;;;;;;6314966;22;20228;-89
2022/03/19 09:19:31;;;;;;;15.07;6.85;;;;;;;;;;6315323;22;20161;-89
2022/03/19 09:22:36;;;;;;;17.73;6.80;;;;;;;;;;6298893;22;20148;-89
2022/03/19 09:25:43;;;;;;;14.88;6.63;;;;;;;;;;6317314;22;20168;-89
2022/03/19 09:28:48;;;;;;;17.63;7.47;;;;;;;;;;6315160;22;20424;-87
2022/03/19 09:31:53;;;;;;;15.45;6.93;;;;;;;;;;6298734;22;20236;-88
2022/03/19 09:34:58;;;;;;;16.38;7.20;;;;;;;;;;6297999;22;20235;-89
2022/03/19 09:38:04;;;;;;;15.30;7.28;;;;;;;;;;6317263;22;20207;-89
2022/03/19 09:41:10;;;;;;;16.05;7.60;;;;;;;;;;6317290;22;20254;-91
2022/03/19 09:44:17;;;;;;;15.90;8.00;;;;;;;;;;6315758;22;20617;-89
2022/03/19 09:47:23;;;;;;;17.98;8.90;;;;;;;;;;6315485;22;20683;-87
2022/03/19 09:50:28;;;;;;;17.02;8.52;;;;;;;;;;6315082;22;20208;-89
2022/03/19 09:53:34;;;;;;;17.42;8.93;;;;;;;;;;6316856;22;20172;-88
2022/03/19 09:56:40;;;;;;;18.75;9.30;;;;;;;;;;6314949;22;20165;-89
2022/03/19 09:59:45;;;;;;;16.10;9.15;;;;;;;;;;6298988;22;20166;-87
2022/03/19 10:02:56;;;;;;;17.58;9.30;;;;;;;;;;6300898;22;20168;-89
2022/03/19 10:09:24;;;;;;;18.25;9.88;;;;;;;;;;6315531;22;20686;-89
2022/03/19 10:12:31;;;;;;;18.05;9.25;;;;;;;;;;6317743;22;20515;-89
2022/03/19 10:15:41;;;;;;;21.80;10.18;;;;;;;;;;6314632;22;20172;-87
2022/03/19 10:18:46;;;;;;;18.35;9.82;;;;;;;;;;6296148;22;20192;-89
2022/03/19 10:21:51;;;;;;;22.23;11.10;;;;;;;;;;6298196;22;20170;-89
2022/03/19 10:24:57;;;;;;;19.67;9.55;;;;;;;;;;6314989;22;20177;-89
2022/03/19 10:28:08;;;;;;;22.58;12.13;;;;;;;;;;6318122;22;20176;-90
2022/03/19 10:31:29;;;;;;;19.90;10.05;;;;;;;;;;6297742;22;20608;-89
2022/03/19 10:34:35;;;;;;;23.05;12.45;;;;;;;;;;6296738;22;20177;-90
2022/03/19 10:37:41;;;;;;;28.23;12.90;;;;;;;;;;6297209;22;20265;-89
2022/03/19 10:40:48;;;;;;;28.88;12.98;;;;;;;;;;6296625;22;20169;-89
2022/03/19 10:43:55;;;;;;;28.63;13.30;;;;;;;;;;6298578;22;20165;-88
2022/03/19 10:47:02;;;;;;;32.15;15.57;;;;;;;;;;6296311;22;20444;-88
2022/03/19 10:50:07;;;;;;;29.98;14.82;;;;;;;;;;6295885;22;20170;-88
2022/03/19 10:53:12;;;;;;;36.15;18.40;;;;;;;;;;6298008;22;20220;-90
2022/03/19 10:56:17;;;;;;;28.77;15.38;;;;;;;;;;6297306;22;20208;-89
2022/03/19 10:59:24;;;;;;;28.27;14.40;;;;;;;;;;6297184;22;20671;-88
2022/03/19 11:02:31;;;;;;;33.35;15.05;;;;;;;;;;6298372;22;20169;-89
2022/03/19 11:05:37;;;;;;;33.67;15.77;;;;;;;;;;6298366;22;20179;-88
2022/03/19 11:08:43;;;;;;;36.08;15.57;;;;;;;;;;6298103;22;20233;-89
2022/03/19 11:11:51;;;;;;;31.08;16.48;;;;;;;;;;6299355;22;20245;-88
2022/03/19 11:14:59;;;;;;;31.75;16.05;;;;;;;;;;6298259;22;20177;-89
2022/03/19 11:18:06;;;;;;;29.52;15.43;;;;;;;;;;6298876;22;20177;-91
2022/03/19 11:21:14;;;;;;;34.67;16.85;;;;;;;;;;6317646;22;20172;-89
2022/03/19 11:24:23;;;;;;;31.77;17.42;;;;;;;;;;6299470;22;20169;-89
2022/03/19 11:27:29;;;;;;;34.17;16.73;;;;;;;;;;6298459;22;20169;-89
2022/03/19 11:30:36;;;;;;;32.35;16.98;;;;;;;;;;6298529;22;20169;-89
2022/03/19 11:33:42;;;;;;;32.88;16.45;;;;;;;;;;6297949;22;20168;-88
2022/03/19 11:36:56;;;;;;;34.28;16.27;;;;;;;;;;6298327;22;20287;-89
2022/03/19 11:40:06;;;;;;;35.03;17.92;;;;;;;;;;6296893;22;20173;-87
2022/03/19 11:43:11;;;;;;;34.85;16.58;;;;;;;;;;6299027;22;20165;-90
2022/03/19 11:46:18;;;;;;;39.05;19.05;;;;;;;;;;6297641;22;20169;-87
2022/03/19 11:49:38;;;;;;;34.65;16.20;;;;;;;;;;6315754;22;20157;-87
2022/03/19 11:53:07;;;;;;;36.55;17.42;;;;;;;;;;6299189;22;20243;-86
2022/03/19 11:56:19;;;;;;;42.33;20.50;;;;;;;;;;6298846;22;20251;-89
2022/03/19 11:59:46;;;;;;;42.35;20.60;;;;;;;;;;6299475;22;20220;-87
2022/03/19 12:03:07;;;;;;;42.92;19.75;;;;;;;;;;6298330;22;20173;-89
2022/03/19 12:06:27;;;;;;;43.38;20.10;;;;;;;;;;6297050;22;20176;-87
2022/03/19 12:09:34;;;;;;;38.47;20.48;;;;;;;;;;6298518;22;20166;-89
2022/03/19 12:12:41;;;;;;;39.15;18.58;;;;;;;;;;6298107;22;20169;-88
2022/03/19 12:15:47;;;;;;;39.15;18.35;;;;;;;;;;6299221;22;20169;-88
2022/03/19 12:18:56;;;;;;;43.58;19.50;;;;;;;;;;6317936;22;20192;-88
2022/03/19 12:22:01;;;;;;;44.20;19.30;;;;;;;;;;6299149;22;20176;-87
2022/03/19 12:25:12;;;;;;;52.15;18.95;;;;;;;;;;6297406;22;20169;-88
2022/03/19 12:28:17;;;;;;;39.33;17.95;;;;;;;;;;6317340;22;20264;-88
2022/03/19 12:31:29;;;;;;;36.60;17.77;;;;;;;;;;6298277;22;20243;-88
2022/03/19 12:34:36;;;;;;;39.47;17.80;;;;;;;;;;6299956;22;20169;-88
2022/03/19 12:37:47;;;;;;;39.63;18.70;;;;;;;;;;6299211;22;20193;-88
2022/03/19 12:44:20;;;;;;;33.42;15.60;;;;;;;;;;6317536;22;20180;-88
2022/03/19 12:47:25;;;;;;;42.85;19.15;;;;;;;;;;6298404;22;20165;-88
2022/03/19 12:50:31;;;;;;;37.58;17.83;;;;;;;;;;6297682;22;20165;-89
2022/03/19 12:53:37;;;;;;;34.65;17.33;;;;;;;;;;6318532;22;20161;-88
2022/03/19 12:56:45;;;;;;;36.50;18.27;;;;;;;;;;6301520;22;20247;-89
2022/03/19 12:59:52;;;;;;;37.00;18.02;;;;;;;;;;6300674;22;20173;-89
2022/03/19 13:02:57;;;;;;;37.90;19.23;;;;;;;;;;6303544;22;20169;-87
2022/03/19 13:06:07;;;;;;;37.72;17.55;;;;;;;;;;6302644;22;20160;-86
2022/03/19 13:09:13;;;;;;;41.03;17.33;;;;;;;;;;6303483;22;20231;-87
2022/03/19 13:12:21;;;;;;;36.35;17.15;;;;;;;;;;6319998;22;20166;-89
2022/03/19 13:15:27;;;;;;;33.92;14.80;;;;;;;;;;6301492;22;20215;-88
2022/03/19 13:18:35;;;;;;;39.28;17.40;;;;;;;;;;6299601;22;20261;-87
2022/03/19 13:21:43;;;;;;;35.65;16.08;;;;;;;;;;6299407;22;20292;-88
2022/03/19 13:24:49;;;;;;;30.42;11.93;;;;;;;;;;6300728;22;20165;-88
2022/03/19 13:27:57;;;;;;;28.92;14.60;;;;;;;;;;6301820;22;20621;-88
2022/03/19 13:31:02;;;;;;;29.77;15.30;;;;;;;;;;6301221;22;20169;-89
2022/03/19 13:34:07;;;;;;;30.15;15.43;;;;;;;;;;6322383;22;20160;-88
2022/03/19 13:37:14;;;;;;;31.15;15.85;;;;;;;;;;6301421;22;20161;-90
2022/03/19 13:40:19;;;;;;;29.60;14.88;;;;;;;;;;6301303;22;20475;-90
2022/03/19 13:43:25;;;;;;;32.95;15.95;;;;;;;;;;6302273;22;20172;-89
2022/03/19 13:46:30;;;;;;;32.35;15.02;;;;;;;;;;6301714;22;20169;-88
2022/03/19 13:49:41;;;;;;;28.58;14.93;;;;;;;;;;6321520;22;20165;-87
2022/03/19 13:52:49;;;;;;;30.33;15.27;;;;;;;;;;6303819;22;20196;-88
2022/03/19 13:55:56;;;;;;;35.25;15.30;;;;;;;;;;6303430;22;20161;-87
2022/03/19 13:59:02;;;;;;;33.67;15.70;;;;;;;;;;6302792;22;20213;-87
2022/03/19 14:02:07;;;;;;;35.33;16.27;;;;;;;;;;6304608;22;20207;-89
2022/03/19 14:05:12;;;;;;;30.13;15.10;;;;;;;;;;6300871;22;20304;-88
2022/03/19 14:08:22;;;;;;;26.02;14.77;;;;;;;;;;6302004;22;20169;-88
2022/03/19 14:11:38;;;;;;;28.70;14.40;;;;;;;;;;6302612;22;20165;-88
2022/03/19 14:14:43;;;;;;;28.05;13.27;;;;;;;;;;6303297;22;20169;-83
2022/03/19 14:18:15;;;;;;;26.40;11.77;;;;;;;;;;6304448;22;20157;-89
2022/03/19 14:21:21;;;;;;;27.65;13.73;;;;;;;;;;6307406;22;20185;-88
2022/03/19 14:24:31;;;;;;;23.75;12.43;;;;;;;;;;6302797;22;20202;-90
2022/03/19 14:27:38;;;;;;;29.58;14.23;;;;;;;;;;6299937;22;20166;-88
2022/03/19 14:30:44;;;;;;;31.00;14.15;;;;;;;;;;6300813;22;20157;-89
2022/03/19 14:33:49;;;;;;;31.42;14.20;;;;;;;;;;6300687;22;20592;-87
2022/03/19 14:36:55;;;;;;;29.80;13.88;;;;;;;;;;6301537;22;20161;-88
2022/03/19 14:40:03;;;;;;;27.20;13.77;;;;;;;;;;6300463;22;20212;-89
2022/03/19 14:43:08;;;;;;;29.52;13.45;;;;;;;;;;6300861;22;20161;-88
2022/03/19 14:46:14;;;;;;;30.70;13.75;;;;;;;;;;6301709;22;20157;-88
2022/03/19 14:49:19;;;;;;;30.05;13.38;;;;;;;;;;6302370;22;20188;-87
2022/03/19 14:52:24;;;;;;;25.60;12.13;;;;;;;;;;6302976;22;20196;-88
2022/03/19 14:55:31;;;;;;;24.27;12.57;;;;;;;;;;6302992;22;20604;-86
2022/03/19 14:58:37;;;;;;;25.05;12.68;;;;;;;;;;6304119;22;20196;-89
2022/03/19 15:01:43;;;;;;;28.50;13.70;;;;;;;;;;6301166;22;20264;-88
2022/03/19 15:04:48;;;;;;;29.35;13.85;;;;;;;;;;6299389;22;20162;-88
2022/03/19 15:07:53;;;;;;;29.83;13.27;;;;;;;;;;6300770;22;20624;-86
2022/03/19 15:11:00;;;;;;;23.55;12.88;;;;;;;;;;6321696;22;20260;-89
2022/03/19 15:14:05;;;;;;;25.50;12.60;;;;;;;;;;6300432;22;20235;-88
2022/03/19 15:17:11;;;;;;;26.58;12.93;;;;;;;;;;6299959;22;20177;-90
2022/03/19 15:20:16;;;;;;;26.75;12.95;;;;;;;;;;6320815;22;20278;-87
2022/03/19 15:23:22;;;;;;;22.10;11.13;;;;;;;;;;6320857;22;20215;-88
2022/03/19 15:26:28;;;;;;;28.63;12.93;;;;;;;;;;6320087;22;20227;-88
2022/03/19 15:29:34;;;;;;;25.20;12.07;;;;;;;;;;6302787;22;20184;-88
2022/03/19 15:32:39;;;;;;;29.35;12.63;;;;;;;;;;6300045;22;20165;-88
2022/03/19 15:35:44;;;;;;;30.45;13.00;;;;;;;;;;6299596;22;20167;-89
2022/03/19 15:38:49;;;;;;;24.52;11.95;;;;;;;;;;6301617;22;20203;-88
2022/03/19 15:41:56;;;;;;;23.35;11.25;;;;;;;;;;6301744;22;20211;-89
2022/03/19 15:45:01;;;;;;;25.27;12.25;;;;;;;;;;6302555;22;20259;-88
2022/03/19 15:48:09;;;;;;;26.65;11.82;;;;;;;;;;6321321;22;20234;-89
2022/03/19 15:51:14;;;;;;;24.65;12.20;;;;;;;;;;6302395;22;20694;-88
2022/03/19 15:54:19;;;;;;;31.00;13.65;;;;;;;;;;6302364;22;20164;-88
2022/03/19 15:57:26;;;;;;;26.27;12.52;;;;;;;;;;6302000;22;20172;-89
2022/03/19 16:00:33;;;;;;;26.63;12.20;;;;;;;;;;6303297;22;20596;-89
2022/03/19 16:03:38;;;;;;;26.08;11.63;;;;;;;;;;6321481;22;20169;-89
2022/03/19 16:06:44;;;;;;;26.67;11.02;;;;;;;;;;6323025;22;20223;-89
2022/03/19 16:09:50;;;;;;;26.58;12.73;;;;;;;;;;6300172;22;20164;-87
2022/03/19 16:12:58;;;;;;;24.77;11.70;;;;;;;;;;6300113;22;20172;-89
2022/03/19 16:16:07;;;;;;;29.67;12.20;;;;;;;;;;6301287;22;20168;-88
2022/03/19 16:19:11;;;;;;;26.00;11.70;;;;;;;;;;6302784;22;20196;-88
2022/03/19 16:22:17;;;;;;;22.27;10.60;;;;;;;;;;6301915;22;20219;-89
2022/03/19 16:25:22;;;;;;;27.92;12.10;;;;;;;;;;6301366;22;20160;-88
2022/03/19 16:28:28;;;;;;;30.90;12.32;;;;;;;;;;6303688;22;20172;-88
2022/03/19 16:31:33;;;;;;;28.00;12.40;;;;;;;;;;6303899;22;20229;-87
2022/03/19 16:34:39;;;;;;;26.00;11.98;;;;;;;;;;6303718;22;20620;-87
2022/03/19 16:37:44;;;;;;;23.27;11.23;;;;;;;;;;6303878;22;20173;-87
2022/03/19 16:40:49;;;;;;;32.15;11.15;;;;;;;;;;6303412;22;20207;-87
2022/03/19 16:43:56;;;;;;;24.05;11.25;;;;;;;;;;6306230;22;20195;-87
2022/03/19 16:47:02;;;;;;;23.02;10.73;;;;;;;;;;6323278;22;20157;-88
2022/03/19 16:50:08;;;;;;;28.27;11.30;;;;;;;;;;6305643;22;20243;-87
2022/03/19 16:53:14;;;;;;;18.73;8.55;;;;;;;;;;6301972;22;20165;-86
2022/03/19 16:56:20;;;;;;;25.33;11.48;;;;;;;;;;6321942;22;20169;-87
2022/03/19 16:59:26;;;;;;;23.65;10.88;;;;;;;;;;6306423;22;20197;-87
2022/03/19 17:02:31;;;;;;;23.30;10.23;;;;;;;;;;6304984;22;20208;-85
2022/03/19 17:05:37;;;;;;;26.40;11.20;;;;;;;;;;6303556;22;20173;-87
2022/03/19 17:08:42;;;;;;;21.58;9.52;;;;;;;;;;6306287;22;20157;-88
2022/03/19 17:11:47;;;;;;;25.05;10.93;;;;;;;;;;6305467;22;20233;-87
2022/03/19 17:14:54;;;;;;;25.73;10.88;;;;;;;;;;6304375;22;20209;-87
2022/03/19 17:18:00;;;;;;;23.20;10.05;;;;;;;;;;6302476;22;20177;-87
2022/03/19 17:21:05;;;;;;;23.15;9.77;;;;;;;;;;6305592;22;20152;-88
2022/03/19 17:24:10;;;;;;;22.80;8.82;;;;;;;;;;6306499;22;20168;-87
2022/03/19 17:27:16;;;;;;;21.00;9.03;;;;;;;;;;6323817;22;20172;-87
2022/03/19 17:30:23;;;;;;;19.10;9.20;;;;;;;;;;6320232;22;20539;-87
2022/03/19 17:33:28;;;;;;;24.95;10.05;;;;;;;;;;6321668;22;20544;-88
2022/03/19 17:36:34;;;;;;;24.75;10.07;;;;;;;;;;6304143;22;20161;-87
2022/03/19 17:39:39;;;;;;;23.23;10.33;;;;;;;;;;6302429;22;20195;-87
2022/03/19 17:42:43;;;;;;;19.13;8.97;;;;;;;;;;6303413;22;20604;-88
2022/03/19 17:45:50;;;;;;;21.07;9.87;;;;;;;;;;6321202;22;20161;-89
2022/03/19 17:48:55;;;;;;;23.13;10.50;;;;;;;;;;6305189;22;20165;-87
2022/03/19 17:52:01;;;;;;;20.17;9.13;;;;;;;;;;6305038;22;20234;-87
2022/03/19 17:55:07;;;;;;;28.10;11.27;;;;;;;;;;6305105;22;20164;-88
2022/03/19 17:58:15;;;;;;;24.50;11.07;;;;;;;;;;6303662;22;20169;-88
2022/03/19 18:01:22;;;;;;;27.90;11.47;;;;;;;;;;6306076;22;20165;-87
2022/03/19 18:04:27;;;;;;;30.87;11.43;;;;;;;;;;6305236;22;20164;-88
2022/03/19 18:07:33;;;;;;;21.03;8.07;;;;;;;;;;6303602;22;20209;-88
2022/03/19 18:10:38;;;;;;;22.70;10.77;;;;;;;;;;6302342;22;20236;-87
2022/03/19 18:13:44;;;;;;;30.10;11.50;;;;;;;;;;6303515;22;20145;-88
2022/03/19 18:16:50;;;;;;;26.90;11.37;;;;;;;;;;6302337;22;20181;-88
2022/03/19 18:19:55;;;;;;;26.37;12.00;;;;;;;;;;6303979;22;20571;-87
2022/03/19 18:23:00;;;;;;;27.37;13.00;;;;;;;;;;6302654;22;20156;-87
2022/03/19 18:26:06;;;;;;;30.87;13.07;;;;;;;;;;6303717;22;20165;-87
2022/03/19 18:29:11;;;;;;;30.33;13.10;;;;;;;;;;6305174;22;20218;-88
2022/03/19 18:32:19;;;;;;;24.93;10.90;;;;;;;;;;6304546;22;20164;-86
2022/03/19 18:35:24;;;;;;;35.03;13.57;;;;;;;;;;6304648;22;20173;-87
2022/03/19 18:38:29;;;;;;;30.70;13.30;;;;;;;;;;6304294;22;20188;-86
2022/03/19 18:41:34;;;;;;;34.30;14.80;;;;;;;;;;6305465;22;20173;-87
2022/03/19 18:44:41;;;;;;;27.90;10.87;;;;;;;;;;6303303;22;20165;-89
2022/03/19 18:47:47;;;;;;;36.50;14.50;;;;;;;;;;6303889;22;20157;-87
2022/03/19 18:50:52;;;;;;;29.50;14.23;;;;;;;;;;6305154;22;20200;-87
2022/03/19 18:53:58;;;;;;;39.33;13.93;;;;;;;;;;6304196;22;20169;-89
2022/03/19 18:57:04;;;;;;;36.73;14.10;;;;;;;;;;6302064;22;20153;-89
2022/03/19 19:00:10;;;;;;;32.03;13.83;;;;;;;;;;6304110;22;20212;-87
2022/03/19 19:03:17;;;;;;;36.63;14.70;;;;;;;;;;6303953;22;20280;-87
2022/03/19 19:06:22;;;;;;;23.27;10.13;;;;;;;;;;6304799;22;20172;-86
2022/03/19 19:09:27;;;;;;;34.50;12.57;;;;;;;;;;6305443;22;20168;-87
2022/03/19 19:12:33;;;;;;;29.20;12.90;;;;;;;;;;6301681;22;20208;-87
2022/03/19 19:15:40;;;;;;;28.83;11.67;;;;;;;;;;6320054;22;20168;-89
2022/03/19 19:18:50;;;;;;;36.20;14.47;;;;;;;;;;6302442;22;20169;-87
2022/03/19 19:21:55;;;;;;;31.43;14.30;;;;;;;;;;6306235;22;20168;-88
2022/03/19 19:25:01;;;;;;;35.33;14.87;;;;;;;;;;6304816;22;20168;-88
2022/03/19 19:28:06;;;;;;;29.43;13.10;;;;;;;;;;6300878;22;20494;-87
2022/03/19 19:31:12;;;;;;;35.60;14.57;;;;;;;;;;6301228;22;20173;-88
2022/03/19 19:34:19;;;;;;;29.30;12.93;;;;;;;;;;6302304;22;20733;-88
2022/03/19 19:41:10;;;;;;;36.83;15.30;;;;;;;;;;6319727;22;20205;-86
2022/03/19 19:44:15;;;;;;;30.10;14.40;;;;;;;;;;6301782;22;20616;-86
2022/03/19 23:00:57;;;;;;;53.23;22.37;;;;;;;;;;6253268;22;20529;-89
2022/03/19 23:04:02;;;;;;;56.07;22.60;;;;;;;;;;6295793;22;20164;-88
2022/03/19 23:07:08;;;;;;;50.00;22.23;;;;;;;;;;6315057;22;20169;-88
2022/03/19 23:10:15;;;;;;;57.23;22.20;;;;;;;;;;6294549;22;20758;-88
2022/03/19 23:13:21;;;;;;;50.77;21.17;;;;;;;;;;6295378;22;20265;-89
2022/03/19 23:16:28;;;;;;;52.93;22.57;;;;;;;;;;6295807;22;20165;-89
2022/03/19 23:19:34;;;;;;;52.17;22.50;;;;;;;;;;6293561;22;20177;-89
2022/03/19 23:22:39;;;;;;;50.90;21.80;;;;;;;;;;6297829;22;20196;-87
2022/03/19 23:25:44;;;;;;;51.97;21.97;;;;;;;;;;6295269;22;20173;-88
2022/03/19 23:28:49;;;;;;;53.77;21.57;;;;;;;;;;6296108;22;20173;-88